Time;durP1;ratioP1;P1;durP2;ratioP2;P2;SDS_P1;SDS_P2;PMS_P1;PMS_P2;Temp;Humidity;BMP_temperature;BMP_pressure;BME280_temperature;BME280_humidity;BME280_pressure;Samples;Min_cycle;Max_cycle;Signal;HPM_P1;HPM_P2
2021/08/11 00:02:04;;;;;;;2.30;1.70;;;24.60;60.00;;;;;;5019662;28;20453;-65
2021/08/11 00:04:29;;;;;;;2.30;1.70;;;24.70;60.10;;;;;;4990426;28;20404;-65
2021/08/11 00:06:55;;;;;;;2.15;1.70;;;24.70;60.00;;;;;;4987664;28;20394;-65
2021/08/11 00:09:20;;;;;;;2.90;1.70;;;24.60;60.00;;;;;;4986853;28;20410;-65
2021/08/11 00:11:46;;;;;;;2.30;1.80;;;24.60;60.00;;;;;;4995700;28;20754;-65
2021/08/11 00:14:12;;;;;;;2.90;1.75;;;24.60;60.00;;;;;;4984897;28;20456;-65
2021/08/11 00:16:37;;;;;;;2.50;1.70;;;24.60;60.00;;;;;;4990958;28;20502;-65
2021/08/11 00:19:03;;;;;;;2.90;1.60;;;24.60;60.00;;;;;;4993827;28;20401;-65
2021/08/11 00:21:29;;;;;;;2.50;1.80;;;24.60;60.20;;;;;;4990635;28;21010;-65
2021/08/11 00:23:54;;;;;;;2.20;1.65;;;24.60;60.00;;;;;;4986003;28;20394;-65
2021/08/11 00:26:20;;;;;;;2.10;1.67;;;24.60;60.00;;;;;;4991460;28;20425;-65
2021/08/11 00:28:47;;;;;;;2.40;1.73;;;24.60;60.00;;;;;;5005509;28;20521;-65
2021/08/11 00:31:13;;;;;;;2.70;1.80;;;24.60;59.90;;;;;;4987441;28;20410;-65
2021/08/11 00:33:39;;;;;;;2.10;1.60;;;24.60;59.90;;;;;;4985305;28;20398;-65
2021/08/11 00:36:04;;;;;;;2.00;1.63;;;24.60;59.90;;;;;;4988362;28;20425;-65
2021/08/11 00:38:30;;;;;;;2.10;1.70;;;24.60;59.90;;;;;;4990134;28;20750;-65
2021/08/11 00:40:56;;;;;;;2.90;1.98;;;24.60;59.90;;;;;;4988112;28;20409;-65
2021/08/11 00:43:21;;;;;;;2.50;1.77;;;24.50;59.80;;;;;;4992310;28;20386;-65
2021/08/11 00:45:47;;;;;;;2.90;1.80;;;24.60;59.90;;;;;;4986131;28;20414;-65
2021/08/11 00:48:14;;;;;;;2.85;1.83;;;24.50;59.70;;;;;;4992337;28;20396;-65
2021/08/11 00:50:41;;;;;;;2.10;1.75;;;24.50;59.80;;;;;;4993243;28;20488;-65
2021/08/11 00:53:08;;;;;;;2.50;1.70;;;24.60;59.80;;;;;;4986132;28;20413;-65
2021/08/11 00:55:38;;;;;;;2.20;1.80;;;24.60;59.80;;;;;;4984932;28;20448;-65
2021/08/11 00:58:07;;;;;;;2.50;1.70;;;24.50;59.80;;;;;;4999419;28;20373;-65
2021/08/11 01:00:34;;;;;;;2.58;1.75;;;24.50;59.80;;;;;;5005386;28;20905;-65
2021/08/11 01:03:01;;;;;;;2.33;1.60;;;24.50;59.80;;;;;;4991242;28;20498;-64
2021/08/11 01:05:27;;;;;;;2.30;1.60;;;24.50;59.80;;;;;;4995352;28;20407;-65
2021/08/11 01:07:54;;;;;;;2.88;1.77;;;24.50;59.90;;;;;;4985955;28;20875;-65
2021/08/11 01:10:20;;;;;;;2.13;1.67;;;24.50;60.40;;;;;;4991452;28;20391;-65
2021/08/11 01:12:47;;;;;;;2.67;1.77;;;24.50;59.80;;;;;;4985655;28;20391;-65
2021/08/11 01:15:13;;;;;;;2.20;1.67;;;24.50;60.40;;;;;;5001325;28;20471;-65
2021/08/11 01:17:38;;;;;;;2.60;1.80;;;24.50;59.80;;;;;;4999671;28;20461;-65
2021/08/11 01:20:05;;;;;;;2.33;1.67;;;24.50;59.80;;;;;;4989717;28;20424;-65
2021/08/11 01:22:58;;;;;;;2.20;1.63;;;24.50;59.80;;;;;;4995111;28;20408;-65
2021/08/11 01:25:34;;;;;;;2.20;1.60;;;24.40;59.70;;;;;;4986416;28;20407;-65
2021/08/11 01:28:24;;;;;;;2.50;1.67;;;24.50;59.80;;;;;;4988899;28;20430;-65
2021/08/11 01:31:13;;;;;;;2.70;1.80;;;24.50;59.70;;;;;;4995685;28;20402;-65
2021/08/11 01:33:45;;;;;;;2.15;1.67;;;24.50;59.80;;;;;;4988370;28;20704;-65
2021/08/11 01:36:28;;;;;;;2.20;1.67;;;24.50;59.80;;;;;;5010134;28;20870;-64
2021/08/11 01:39:24;;;;;;;2.10;1.50;;;24.50;59.70;;;;;;4991915;28;21016;-65
2021/08/11 01:41:57;;;;;;;2.70;1.70;;;24.40;59.60;;;;;;4989909;28;20434;-65
2021/08/11 01:44:26;;;;;;;2.08;1.60;;;24.50;59.80;;;;;;4989199;28;20925;-65
2021/08/11 01:46:53;;;;;;;2.90;1.60;;;24.40;59.60;;;;;;4994069;28;20401;-65
2021/08/11 01:49:22;;;;;;;2.08;1.65;;;24.40;59.60;;;;;;4991356;28;21194;-65
2021/08/11 01:51:48;;;;;;;2.45;1.60;;;24.40;59.60;;;;;;4990190;28;20398;-65
2021/08/11 01:54:15;;;;;;;2.10;1.65;;;24.40;59.60;;;;;;4989765;28;20942;-65
2021/08/11 01:56:43;;;;;;;2.65;1.70;;;24.50;59.70;;;;;;4994091;28;20901;-65
2021/08/11 01:59:10;;;;;;;2.25;1.70;;;24.40;59.60;;;;;;4989482;28;20879;-65
2021/08/11 02:01:38;;;;;;;2.10;1.52;;;24.40;59.60;;;;;;4986495;28;20413;-65
2021/08/11 02:04:06;;;;;;;1.98;1.60;;;24.40;59.50;;;;;;4989999;28;20389;-65
2021/08/11 02:06:32;;;;;;;2.00;1.55;;;24.40;59.60;;;;;;4994647;28;21215;-64
2021/08/11 02:08:59;;;;;;;2.33;1.63;;;24.40;59.50;;;;;;4991010;28;20400;-64
2021/08/11 02:11:25;;;;;;;2.40;1.80;;;24.40;59.40;;;;;;4990049;28;20403;-65
2021/08/11 02:13:50;;;;;;;1.75;1.40;;;24.40;59.50;;;;;;4992507;28;20410;-65
2021/08/11 02:16:18;;;;;;;2.17;1.60;;;24.40;59.50;;;;;;4986143;28;20806;-65
2021/08/11 02:18:44;;;;;;;2.33;1.60;;;24.40;59.60;;;;;;4988332;28;20917;-65
2021/08/11 02:21:09;;;;;;;2.60;1.80;;;24.40;59.50;;;;;;4995193;28;20406;-65
2021/08/11 02:23:35;;;;;;;2.22;1.70;;;24.30;59.50;;;;;;4989721;28;20405;-65
2021/08/11 02:26:24;;;;;;;1.98;1.60;;;24.40;59.50;;;;;;4998141;28;20408;-65
2021/08/11 02:29:04;;;;;;;1.92;1.55;;;24.40;59.60;;;;;;4994321;28;20737;-65
2021/08/11 02:31:56;;;;;;;2.40;1.60;;;24.30;59.50;;;;;;4987732;28;20880;-65
2021/08/11 02:34:27;;;;;;;2.13;1.67;;;24.40;59.60;;;;;;5015146;28;20465;-65
2021/08/11 02:36:59;;;;;;;2.08;1.58;;;24.30;59.60;;;;;;4992787;28;20394;-65
2021/08/11 02:39:33;;;;;;;2.20;1.65;;;24.30;59.60;;;;;;4986153;28;20382;-65
2021/08/11 02:42:08;;;;;;;1.90;1.50;;;24.30;59.60;;;;;;4995808;28;20394;-65
2021/08/11 02:44:40;;;;;;;2.17;1.60;;;24.30;59.60;;;;;;4992324;28;20423;-65
2021/08/11 02:47:07;;;;;;;2.40;1.60;;;24.30;59.60;;;;;;4991389;28;20744;-65
2021/08/11 02:49:35;;;;;;;2.25;1.60;;;24.30;59.60;;;;;;4992072;28;20447;-65
2021/08/11 02:52:01;;;;;;;2.40;1.83;;;24.30;59.60;;;;;;4985903;28;20394;-65
2021/08/11 02:54:29;;;;;;;2.10;1.77;;;24.30;59.70;;;;;;4990401;28;20556;-65
2021/08/11 02:56:55;;;;;;;2.40;1.70;;;24.30;59.60;;;;;;4992290;28;20390;-65
2021/08/11 02:59:28;;;;;;;2.40;1.50;;;24.30;59.60;;;;;;4992270;28;20398;-65
2021/08/11 03:01:54;;;;;;;2.35;1.77;;;24.30;59.60;;;;;;5007299;28;20941;-65
2021/08/11 03:04:20;;;;;;;2.70;1.50;;;24.30;59.70;;;;;;4986195;28;20410;-65
2021/08/11 03:06:46;;;;;;;2.35;1.70;;;24.30;59.60;;;;;;4992267;28;20393;-65
2021/08/11 03:09:12;;;;;;;2.13;1.50;;;24.30;59.50;;;;;;4987527;28;20399;-65
2021/08/11 03:11:39;;;;;;;3.00;1.70;;;24.30;59.90;;;;;;4989728;28;20391;-65
2021/08/11 03:14:06;;;;;;;2.10;1.55;;;24.30;60.00;;;;;;4993560;28;20410;-65
2021/08/11 03:16:36;;;;;;;3.20;1.80;;;24.30;60.10;;;;;;4990905;28;20413;-65
2021/08/11 03:19:03;;;;;;;2.53;1.90;;;24.30;60.20;;;;;;4995651;28;20413;-65
2021/08/11 03:21:29;;;;;;;3.95;2.10;;;24.30;60.00;;;;;;4989067;28;21012;-66
2021/08/11 03:23:55;;;;;;;2.65;1.90;;;24.30;61.20;;;;;;4994597;28;20421;-64
2021/08/11 03:26:20;;;;;;;2.35;1.70;;;24.30;60.60;;;;;;4992062;28;20516;-65
2021/08/11 03:28:46;;;;;;;3.47;2.20;;;24.30;61.00;;;;;;4987162;28;20409;-66
2021/08/11 03:31:12;;;;;;;2.50;1.95;;;24.30;61.30;;;;;;4989451;28;20404;-65
2021/08/11 03:33:38;;;;;;;3.10;2.05;;;24.40;62.10;;;;;;4990594;28;20399;-65
2021/08/11 03:36:03;;;;;;;2.90;2.15;;;24.40;62.10;;;;;;4993052;28;20774;-65
2021/08/11 03:38:29;;;;;;;3.10;1.90;;;24.40;62.30;;;;;;4994317;28;20394;-64
2021/08/11 03:40:55;;;;;;;4.00;2.30;;;24.40;62.20;;;;;;4996634;28;20412;-65
2021/08/11 03:43:20;;;;;;;4.03;2.00;;;24.40;62.00;;;;;;4997864;28;20407;-65
2021/08/11 03:45:46;;;;;;;4.32;2.42;;;24.40;61.50;;;;;;4987337;28;20407;-65
2021/08/11 03:48:12;;;;;;;4.03;2.20;;;24.40;61.90;;;;;;4991372;28;20874;-64
2021/08/11 03:50:37;;;;;;;2.30;2.00;;;24.50;62.10;;;;;;4992375;28;20456;-64
2021/08/11 03:53:03;;;;;;;2.90;2.00;;;24.50;61.90;;;;;;4996226;28;20400;-65
2021/08/11 03:55:32;;;;;;;2.92;2.10;;;24.50;61.80;;;;;;4989263;28;21553;-65
2021/08/11 03:58:01;;;;;;;3.50;2.00;;;24.50;61.80;;;;;;4997447;28;20765;-65
2021/08/11 04:00:27;;;;;;;3.57;1.97;;;24.50;61.30;;;;;;4994419;28;20483;-65
2021/08/11 04:02:53;;;;;;;3.13;1.90;;;24.50;61.00;;;;;;4991758;28;20509;-65
2021/08/11 04:05:19;;;;;;;6.03;2.33;;;24.40;61.00;;;;;;4995211;28;21352;-65
2021/08/11 04:07:44;;;;;;;5.07;2.57;;;24.40;60.60;;;;;;4987212;28;20823;-65
2021/08/11 04:10:11;;;;;;;6.50;2.58;;;24.30;60.30;;;;;;4991114;28;20394;-65
2021/08/11 04:12:37;;;;;;;5.85;2.45;;;24.30;59.40;;;;;;4993704;28;20399;-65
2021/08/11 04:15:04;;;;;;;7.07;2.65;;;24.30;59.40;;;;;;4992259;28;20426;-65
2021/08/11 04:17:29;;;;;;;4.83;2.63;;;24.30;59.10;;;;;;4995760;28;20462;-64
2021/08/11 04:19:55;;;;;;;5.93;2.70;;;24.30;59.20;;;;;;4994852;28;20406;-64
2021/08/11 04:22:21;;;;;;;4.07;2.30;;;24.20;59.20;;;;;;4992098;28;20430;-64
2021/08/11 04:24:47;;;;;;;4.32;2.40;;;24.20;59.30;;;;;;4991429;28;20754;-64
2021/08/11 04:27:13;;;;;;;4.28;2.20;;;24.20;59.40;;;;;;4995102;28;20401;-64
2021/08/11 04:29:39;;;;;;;4.00;2.37;;;24.20;59.40;;;;;;4985946;28;20401;-64
2021/08/11 04:32:04;;;;;;;4.30;2.00;;;24.30;59.40;;;;;;4985799;28;20456;-64
2021/08/11 04:34:30;;;;;;;4.23;2.30;;;24.30;59.40;;;;;;4989822;28;20481;-64
2021/08/11 04:36:56;;;;;;;3.50;2.33;;;24.20;59.30;;;;;;4991443;28;20432;-64
2021/08/11 04:39:22;;;;;;;3.67;2.13;;;24.20;59.30;;;;;;4993606;28;20399;-64
2021/08/11 04:41:48;;;;;;;4.60;2.10;;;24.20;59.30;;;;;;4990834;28;20484;-64
2021/08/11 04:44:14;;;;;;;3.73;2.10;;;24.30;59.30;;;;;;4990692;28;21277;-64
2021/08/11 04:46:40;;;;;;;4.72;2.20;;;24.20;59.30;;;;;;4991261;28;20405;-64
2021/08/11 04:49:06;;;;;;;4.32;2.33;;;24.20;59.30;;;;;;4991812;28;20394;-64
2021/08/11 04:51:33;;;;;;;3.33;2.30;;;24.20;59.30;;;;;;4995495;28;20412;-64
2021/08/11 04:53:58;;;;;;;3.92;2.00;;;24.20;59.30;;;;;;4992042;28;20415;-64
2021/08/11 04:56:24;;;;;;;3.70;2.00;;;24.20;59.30;;;;;;4987809;28;20402;-64
2021/08/11 04:58:50;;;;;;;2.78;2.05;;;24.20;59.30;;;;;;4991718;28;20386;-64
2021/08/11 05:01:15;;;;;;;4.40;2.10;;;24.20;59.90;;;;;;4998377;28;20436;-64
2021/08/11 05:03:42;;;;;;;3.80;2.28;;;24.20;59.30;;;;;;4985560;28;20398;-64
2021/08/11 05:06:08;;;;;;;3.15;2.10;;;24.20;59.30;;;;;;4991660;28;20775;-64
2021/08/11 05:08:38;;;;;;;3.13;2.00;;;24.20;59.30;;;;;;4985259;28;20473;-64
2021/08/11 05:11:04;;;;;;;3.05;1.80;;;24.20;59.30;;;;;;4985428;28;20763;-64
2021/08/11 05:13:30;;;;;;;3.03;1.95;;;24.20;59.30;;;;;;4990692;28;20388;-64
2021/08/11 05:15:56;;;;;;;3.20;2.10;;;24.20;59.30;;;;;;4989624;28;20429;-64
2021/08/11 05:18:22;;;;;;;3.03;2.05;;;24.20;59.30;;;;;;4990718;28;20431;-64
2021/08/11 05:20:48;;;;;;;3.72;2.20;;;24.20;59.40;;;;;;4990897;28;20400;-64
2021/08/11 05:23:14;;;;;;;2.77;1.93;;;24.20;59.30;;;;;;4987767;28;20758;-64
2021/08/11 05:25:41;;;;;;;2.58;1.90;;;24.20;59.30;;;;;;4994365;28;20790;-64
2021/08/11 05:28:07;;;;;;;2.88;1.90;;;24.20;59.30;;;;;;4994550;28;20392;-64
2021/08/11 05:30:34;;;;;;;2.90;2.00;;;24.20;59.30;;;;;;4992904;28;20391;-64
2021/08/11 05:32:59;;;;;;;2.33;1.80;;;24.20;59.30;;;;;;4992794;28;20398;-64
2021/08/11 05:35:25;;;;;;;2.33;1.75;;;24.20;59.30;;;;;;4989495;28;20419;-64
2021/08/11 05:37:51;;;;;;;3.20;1.90;;;24.20;59.40;;;;;;4988750;28;20390;-64
2021/08/11 05:40:18;;;;;;;2.55;1.75;;;24.20;59.40;;;;;;4990327;28;20798;-64
2021/08/11 05:42:44;;;;;;;1.95;1.65;;;24.20;59.40;;;;;;4996895;28;20719;-64
2021/08/11 05:45:10;;;;;;;3.60;2.00;;;24.20;59.40;;;;;;4997098;28;20396;-64
2021/08/11 05:47:36;;;;;;;2.58;1.77;;;24.20;59.40;;;;;;4993239;28;20391;-64
2021/08/11 05:50:03;;;;;;;2.92;1.88;;;24.20;59.40;;;;;;4989583;28;20408;-64
2021/08/11 05:52:29;;;;;;;2.50;2.10;;;24.20;59.40;;;;;;4990276;28;20388;-64
2021/08/11 05:54:55;;;;;;;2.53;1.83;;;24.20;59.40;;;;;;4989870;28;20485;-64
2021/08/11 05:57:21;;;;;;;3.40;2.00;;;24.20;59.40;;;;;;4992791;28;20457;-64
2021/08/11 05:59:47;;;;;;;2.60;1.80;;;24.20;59.40;;;;;;4991115;28;20417;-64
2021/08/11 06:02:13;;;;;;;2.60;1.87;;;24.20;59.40;;;;;;4992808;28;20445;-64
2021/08/11 06:04:39;;;;;;;2.50;1.80;;;24.20;59.50;;;;;;4994063;28;20401;-64
2021/08/11 06:07:05;;;;;;;2.60;1.60;;;24.10;59.40;;;;;;4994396;28;20522;-64
2021/08/11 06:09:30;;;;;;;4.05;1.88;;;24.20;59.50;;;;;;4990739;28;20513;-64
2021/08/11 06:11:56;;;;;;;2.67;1.87;;;24.20;59.40;;;;;;4990469;28;20502;-64
2021/08/11 06:14:22;;;;;;;2.60;1.80;;;24.20;59.50;;;;;;4988998;28;20465;-64
2021/08/11 06:16:47;;;;;;;2.77;2.07;;;24.20;60.00;;;;;;4985361;28;20398;-64
2021/08/11 06:19:13;;;;;;;2.63;1.70;;;24.10;59.40;;;;;;4990256;28;20418;-64
2021/08/11 06:21:39;;;;;;;2.40;1.90;;;24.10;59.50;;;;;;4990495;28;20924;-64
2021/08/11 06:24:05;;;;;;;2.45;1.77;;;24.10;59.40;;;;;;4995295;28;20392;-64
2021/08/11 06:26:30;;;;;;;2.33;1.70;;;24.10;59.40;;;;;;4989526;28;20396;-65
2021/08/11 06:28:56;;;;;;;2.72;1.85;;;24.20;59.50;;;;;;4989545;28;20393;-64
2021/08/11 06:31:24;;;;;;;2.60;1.90;;;24.10;59.40;;;;;;4988437;28;20431;-64
2021/08/11 06:33:51;;;;;;;2.50;1.67;;;24.20;59.50;;;;;;4989073;28;20413;-64
2021/08/11 06:36:17;;;;;;;2.05;1.60;;;24.20;59.50;;;;;;4989822;28;20407;-64
2021/08/11 06:38:44;;;;;;;2.30;1.75;;;24.20;59.50;;;;;;4993340;28;20393;-64
2021/08/11 06:41:15;;;;;;;2.80;1.92;;;24.20;59.50;;;;;;4993490;28;20397;-64
2021/08/11 06:43:41;;;;;;;2.50;1.60;;;24.20;59.50;;;;;;4993672;28;20753;-64
2021/08/11 06:46:07;;;;;;;2.30;1.80;;;24.10;59.40;;;;;;4986324;28;20402;-64
2021/08/11 06:48:34;;;;;;;2.40;1.85;;;24.20;59.50;;;;;;4990717;28;20395;-64
2021/08/11 06:51:00;;;;;;;2.40;1.60;;;24.20;59.50;;;;;;4992914;28;20395;-64
2021/08/11 06:53:25;;;;;;;2.13;1.80;;;24.20;59.40;;;;;;4989934;28;20408;-64
2021/08/11 06:55:51;;;;;;;2.40;1.77;;;24.20;59.40;;;;;;4991725;28;20445;-66
2021/08/11 06:58:17;;;;;;;2.80;1.73;;;24.20;59.40;;;;;;4989282;28;20444;-64
2021/08/11 07:00:42;;;;;;;2.30;2.00;;;24.10;59.30;;;;;;4984000;28;20428;-64
2021/08/11 07:03:08;;;;;;;2.38;1.60;;;24.10;59.40;;;;;;4983751;28;20391;-64
2021/08/11 07:05:34;;;;;;;2.57;1.77;;;24.20;59.40;;;;;;4983886;28;20395;-64
2021/08/11 07:07:59;;;;;;;2.50;1.75;;;24.10;59.40;;;;;;4985527;28;20474;-64
2021/08/11 07:10:25;;;;;;;2.90;2.00;;;24.20;59.50;;;;;;4983500;28;20393;-64
2021/08/11 07:12:51;;;;;;;2.38;1.83;;;24.20;59.50;;;;;;4983581;28;20388;-64
2021/08/11 07:15:16;;;;;;;2.20;1.80;;;24.10;59.40;;;;;;4987272;28;20528;-64
2021/08/11 07:17:50;;;;;;;2.50;1.80;;;24.20;59.50;;;;;;4987362;28;20390;-65
2021/08/11 07:20:16;;;;;;;2.38;1.98;;;24.20;59.50;;;;;;4986814;28;20418;-64
2021/08/11 07:22:42;;;;;;;2.40;1.70;;;24.20;59.60;;;;;;4985421;28;20445;-64
2021/08/11 07:25:08;;;;;;;2.08;1.70;;;24.10;59.50;;;;;;4987733;28;20402;-64
2021/08/11 07:27:34;;;;;;;2.70;1.80;;;24.20;59.60;;;;;;4988203;28;20433;-64
2021/08/11 07:30:01;;;;;;;2.30;2.00;;;24.20;59.60;;;;;;4986238;28;20930;-64
2021/08/11 07:32:26;;;;;;;2.63;1.90;;;24.20;59.60;;;;;;4982893;28;20398;-64
2021/08/11 07:34:52;;;;;;;2.87;1.87;;;24.20;59.60;;;;;;4981646;28;20436;-64
2021/08/11 07:37:18;;;;;;;1.92;1.60;;;24.20;59.60;;;;;;4982366;28;20489;-64
2021/08/11 07:39:43;;;;;;;2.30;1.70;;;24.20;59.60;;;;;;4986253;28;20868;-65
2021/08/11 07:42:09;;;;;;;2.30;1.80;;;24.20;59.60;;;;;;4983973;28;20969;-64
2021/08/11 07:44:35;;;;;;;2.80;1.95;;;24.20;59.60;;;;;;4982659;28;20402;-64
2021/08/11 07:47:01;;;;;;;2.20;1.80;;;24.20;59.60;;;;;;4992042;28;20413;-64
2021/08/11 07:49:26;;;;;;;2.70;1.90;;;24.20;59.60;;;;;;4983030;28;20397;-64
2021/08/11 07:51:52;;;;;;;2.10;1.80;;;24.20;59.60;;;;;;4983323;28;20465;-64
2021/08/11 07:54:18;;;;;;;2.28;1.98;;;24.20;59.60;;;;;;4984549;28;20414;-64
2021/08/11 07:56:43;;;;;;;2.27;1.80;;;24.20;59.60;;;;;;4986841;28;20520;-65
2021/08/11 07:59:09;;;;;;;2.00;1.67;;;24.20;59.60;;;;;;4983668;28;20482;-64
2021/08/11 08:01:35;;;;;;;2.50;1.90;;;24.20;59.60;;;;;;4988067;28;20728;-65
2021/08/11 08:04:00;;;;;;;2.75;1.83;;;24.20;59.60;;;;;;4988729;28;20437;-65
2021/08/11 08:06:26;;;;;;;2.53;1.87;;;24.20;59.70;;;;;;4983511;28;20489;-65
2021/08/11 08:08:52;;;;;;;2.70;2.10;;;24.20;59.70;;;;;;4982529;28;20950;-65
2021/08/11 08:11:17;;;;;;;2.40;1.80;;;24.20;59.60;;;;;;4982706;28;20395;-66
2021/08/11 08:13:45;;;;;;;2.25;1.70;;;24.20;59.60;;;;;;4983888;28;20860;-64
2021/08/11 08:16:14;;;;;;;2.55;1.90;;;24.20;59.60;;;;;;4984718;28;20489;-66
2021/08/11 08:18:40;;;;;;;2.20;1.70;;;24.20;59.60;;;;;;4983829;28;20410;-64
2021/08/11 08:21:06;;;;;;;2.17;1.80;;;24.20;59.60;;;;;;4986254;28;20996;-64
2021/08/11 08:23:31;;;;;;;2.65;1.98;;;24.20;59.60;;;;;;4987221;28;20390;-64
2021/08/11 08:25:57;;;;;;;2.20;1.73;;;24.20;59.60;;;;;;4989269;28;20942;-64
2021/08/11 08:28:24;;;;;;;2.33;1.80;;;24.20;59.60;;;;;;4991605;28;20789;-65
2021/08/11 08:30:51;;;;;;;2.40;2.00;;;24.30;59.60;;;;;;4987923;28;20661;-66
2021/08/11 08:33:17;;;;;;;2.10;1.60;;;24.30;59.60;;;;;;4988377;28;20432;-64
2021/08/11 08:35:43;;;;;;;2.28;1.65;;;24.30;59.60;;;;;;4986687;28;20458;-64
2021/08/11 08:38:09;;;;;;;2.33;1.63;;;24.30;59.60;;;;;;4991253;28;20386;-65
2021/08/11 08:40:37;;;;;;;2.50;1.80;;;24.30;59.60;;;;;;4991694;28;20966;-64
2021/08/11 08:43:05;;;;;;;2.67;1.85;;;24.30;59.60;;;;;;4996077;28;20391;-66
2021/08/11 08:45:32;;;;;;;2.30;1.80;;;24.30;59.60;;;;;;4985932;28;20438;-64
2021/08/11 08:48:02;;;;;;;2.50;1.83;;;24.30;59.60;;;;;;4986094;28;20401;-64
2021/08/11 08:50:27;;;;;;;2.15;1.70;;;24.30;59.60;;;;;;4985896;28;20430;-64
2021/08/11 08:52:55;;;;;;;2.43;1.70;;;24.30;59.60;;;;;;4986561;28;20433;-65
2021/08/11 08:55:21;;;;;;;2.70;1.85;;;24.30;59.60;;;;;;4986171;28;20414;-65
2021/08/11 08:57:47;;;;;;;2.30;1.80;;;24.30;59.60;;;;;;4987015;28;20398;-64
2021/08/11 09:00:13;;;;;;;2.53;1.80;;;24.30;59.60;;;;;;4985910;28;20432;-64
2021/08/11 09:02:40;;;;;;;4.77;1.90;;;24.30;59.50;;;;;;4986322;28;20508;-64
2021/08/11 09:05:07;;;;;;;3.40;2.30;;;24.30;60.00;;;;;;4991846;28;20491;-63
2021/08/11 09:07:33;;;;;;;3.28;2.17;;;24.30;59.40;;;;;;4988483;28;20394;-63
2021/08/11 09:10:23;;;;;;;3.57;2.20;;;24.30;59.50;;;;;;4985636;28;20406;-64
2021/08/11 09:12:51;;;;;;;3.22;2.38;;;24.30;59.40;;;;;;4986106;28;20758;-64
2021/08/11 09:15:38;;;;;;;4.00;2.20;;;24.30;59.40;;;;;;4985920;28;20529;-64
2021/08/11 09:18:12;;;;;;;7.47;2.13;;;24.30;59.30;;;;;;4986467;28;20402;-63
2021/08/11 09:20:38;;;;;;;4.20;2.05;;;24.30;59.40;;;;;;4985230;28;20748;-65
2021/08/11 09:23:05;;;;;;;3.60;2.10;;;24.20;59.40;;;;;;4985687;28;20463;-64
2021/08/11 09:25:35;;;;;;;3.50;2.20;;;24.30;59.40;;;;;;4986144;28;20489;-64
2021/08/11 09:28:01;;;;;;;4.22;2.30;;;24.30;59.40;;;;;;4987386;28;20390;-64
2021/08/11 09:30:34;;;;;;;3.63;2.10;;;24.30;59.50;;;;;;4985248;28;20402;-64
2021/08/11 09:33:04;;;;;;;3.70;2.20;;;24.20;59.40;;;;;;4986525;28;20410;-63
2021/08/11 09:35:33;;;;;;;3.00;1.90;;;24.30;59.40;;;;;;4985256;28;20461;-64
2021/08/11 09:38:01;;;;;;;3.30;2.33;;;24.20;59.40;;;;;;4986996;28;20393;-64
2021/08/11 09:40:32;;;;;;;2.72;2.00;;;24.20;59.40;;;;;;4985409;28;20476;-63
2021/08/11 09:43:02;;;;;;;2.55;2.00;;;24.30;59.50;;;;;;4986300;28;20390;-65
2021/08/11 09:45:53;;;;;;;2.65;1.95;;;24.30;59.50;;;;;;4984990;28;20836;-65
2021/08/11 09:48:21;;;;;;;3.00;2.05;;;24.30;59.50;;;;;;4986139;28;20378;-64
2021/08/11 09:51:02;;;;;;;2.97;2.00;;;24.30;59.50;;;;;;4983245;28;20406;-65
2021/08/11 09:53:31;;;;;;;3.10;2.20;;;24.20;59.40;;;;;;4985361;28;20899;-65
2021/08/11 09:56:02;;;;;;;2.30;2.08;;;24.20;59.40;;;;;;5000253;28;20433;-65
2021/08/11 09:58:37;;;;;;;3.13;2.08;;;24.20;59.40;;;;;;4985071;28;20437;-65
2021/08/11 10:01:13;;;;;;;3.42;2.25;;;24.20;59.40;;;;;;5014587;28;21141;-64
2021/08/11 10:04:02;;;;;;;3.00;2.25;;;24.20;59.40;;;;;;4987330;28;20584;-64
2021/08/11 10:06:32;;;;;;;2.70;2.10;;;24.20;59.40;;;;;;4987063;28;20883;-65
2021/08/11 10:09:21;;;;;;;3.00;2.13;;;24.20;59.30;;;;;;4986961;28;20477;-65
2021/08/11 10:11:50;;;;;;;2.42;2.20;;;24.30;59.40;;;;;;4984046;28;20386;-65
2021/08/11 10:14:21;;;;;;;3.10;2.10;;;24.20;59.40;;;;;;4983675;28;20476;-64
2021/08/11 10:16:47;;;;;;;2.78;2.10;;;24.30;59.40;;;;;;4985679;28;20429;-64
2021/08/11 10:19:13;;;;;;;2.95;2.08;;;24.30;59.40;;;;;;4985027;28;20418;-64
2021/08/11 10:22:01;;;;;;;2.67;2.10;;;24.20;59.40;;;;;;4984592;28;20386;-64
2021/08/11 10:24:28;;;;;;;3.30;2.10;;;24.30;59.50;;;;;;4989932;28;20390;-64
2021/08/11 10:26:55;;;;;;;3.45;2.08;;;24.30;59.60;;;;;;4989286;28;20453;-64
2021/08/11 10:29:21;;;;;;;3.20;2.10;;;24.20;59.50;;;;;;5015802;28;20914;-64
2021/08/11 10:31:47;;;;;;;3.00;2.10;;;24.20;59.60;;;;;;4984268;28;20508;-65
2021/08/11 10:34:16;;;;;;;2.47;1.87;;;24.20;59.60;;;;;;4983401;28;20505;-65
2021/08/11 10:36:43;;;;;;;3.30;2.20;;;24.30;59.70;;;;;;4983884;28;21179;-64
2021/08/11 10:39:09;;;;;;;5.15;2.28;;;24.20;59.60;;;;;;4988791;28;20794;-64
2021/08/11 10:41:37;;;;;;;3.60;2.15;;;24.20;59.70;;;;;;4985011;28;20398;-65
2021/08/11 10:44:04;;;;;;;2.60;1.88;;;24.20;59.70;;;;;;4985904;28;20394;-64
2021/08/11 10:46:42;;;;;;;4.13;2.00;;;24.30;59.70;;;;;;4986597;28;20486;-65
2021/08/11 10:49:16;;;;;;;3.45;2.10;;;24.20;59.70;;;;;;4985344;28;20444;-65
2021/08/11 10:51:46;;;;;;;3.20;2.10;;;24.30;59.80;;;;;;4984119;28;20398;-65
2021/08/11 10:54:13;;;;;;;3.03;2.13;;;24.20;59.70;;;;;;4989491;28;20864;-65
2021/08/11 10:56:56;;;;;;;2.50;2.03;;;24.20;59.80;;;;;;4986730;28;20457;-64
2021/08/11 10:59:21;;;;;;;3.65;2.00;;;24.30;59.70;;;;;;4989351;28;20513;-64
2021/08/11 11:01:48;;;;;;;3.08;1.92;;;24.30;59.70;;;;;;4983879;28;20501;-64
2021/08/11 11:04:43;;;;;;;2.72;1.95;;;24.30;59.70;;;;;;4983769;28;20429;-64
2021/08/11 11:07:12;;;;;;;2.78;2.03;;;24.30;59.70;;;;;;4986947;28;20394;-64
2021/08/11 11:09:39;;;;;;;3.83;2.13;;;24.30;59.70;;;;;;4986219;28;20460;-65
2021/08/11 11:12:17;;;;;;;2.97;2.00;;;24.30;59.70;;;;;;4986699;28;20435;-64
2021/08/11 11:14:49;;;;;;;3.40;2.20;;;24.30;59.70;;;;;;4985379;28;20461;-64
2021/08/11 11:17:16;;;;;;;2.65;2.10;;;24.30;59.70;;;;;;4989977;28;20398;-64
2021/08/11 11:20:12;;;;;;;3.58;1.92;;;24.30;59.60;;;;;;4985715;28;20442;-64
2021/08/11 11:22:40;;;;;;;4.72;2.03;;;24.30;59.60;;;;;;4983272;28;20405;-64
2021/08/11 11:25:17;;;;;;;7.72;2.38;;;24.30;59.70;;;;;;4989363;28;20465;-64
2021/08/11 11:28:01;;;;;;;6.20;2.28;;;24.30;59.60;;;;;;4988218;28;20398;-65
2021/08/11 11:30:27;;;;;;;5.93;2.30;;;24.30;59.60;;;;;;4985883;28;20394;-64
2021/08/11 11:32:53;;;;;;;6.50;2.30;;;24.30;59.60;;;;;;4983586;28;20415;-64
2021/08/11 11:35:21;;;;;;;7.35;2.58;;;24.30;59.60;;;;;;4986932;28;20422;-64
2021/08/11 11:38:07;;;;;;;3.45;2.10;;;24.30;59.60;;;;;;4984119;28;20496;-64
2021/08/11 11:40:33;;;;;;;2.70;2.17;;;24.30;59.50;;;;;;4986506;28;20417;-64
2021/08/11 11:43:27;;;;;;;3.33;2.22;;;24.30;59.50;;;;;;4985260;28;20399;-65
2021/08/11 11:45:54;;;;;;;4.40;2.30;;;24.30;59.50;;;;;;4995329;28;20425;-64
2021/08/11 11:48:20;;;;;;;4.05;2.40;;;24.40;60.20;;;;;;4989436;28;20802;-65
2021/08/11 11:50:50;;;;;;;3.80;2.05;;;24.40;59.70;;;;;;4981392;28;20457;-64
2021/08/11 11:53:33;;;;;;;3.78;2.22;;;24.40;59.70;;;;;;4989745;28;20390;-64
2021/08/11 11:56:12;;;;;;;3.25;2.08;;;24.40;60.00;;;;;;4995161;28;20408;-64
2021/08/11 11:58:46;;;;;;;3.40;2.40;;;24.40;59.80;;;;;;4993099;28;20424;-64
2021/08/11 12:01:13;;;;;;;7.68;2.65;;;24.40;59.80;;;;;;4987515;28;20406;-65
2021/08/11 12:03:53;;;;;;;5.47;2.30;;;24.50;59.70;;;;;;4989752;28;20399;-64
2021/08/11 12:06:45;;;;;;;6.25;2.80;;;24.40;59.70;;;;;;4988592;28;20402;-65
2021/08/11 12:09:11;;;;;;;5.80;2.40;;;24.50;59.80;;;;;;4987179;28;20387;-65
2021/08/11 12:11:37;;;;;;;4.38;2.38;;;24.50;59.80;;;;;;4986778;28;20428;-65
2021/08/11 12:14:04;;;;;;;4.45;2.22;;;24.50;59.70;;;;;;4986689;28;20402;-65
2021/08/11 12:16:36;;;;;;;3.47;2.10;;;24.40;59.70;;;;;;4986941;28;20394;-65
2021/08/11 12:19:15;;;;;;;4.63;2.40;;;24.50;59.70;;;;;;4992524;28;20910;-65
2021/08/11 12:21:42;;;;;;;3.33;2.20;;;24.50;59.70;;;;;;4989954;28;20410;-64
2021/08/11 12:24:08;;;;;;;4.05;2.50;;;24.50;59.60;;;;;;4991418;28;20465;-65
2021/08/11 12:26:34;;;;;;;3.10;2.27;;;24.50;59.60;;;;;;4989766;28;20406;-65
2021/08/11 12:29:00;;;;;;;3.40;2.28;;;24.50;59.60;;;;;;4986330;28;20384;-65
2021/08/11 12:31:32;;;;;;;3.25;2.08;;;24.50;59.60;;;;;;4991131;28;20492;-65
2021/08/11 12:33:58;;;;;;;3.67;2.40;;;24.50;59.50;;;;;;5001422;28;20521;-65
2021/08/11 12:36:35;;;;;;;3.53;2.22;;;24.50;59.50;;;;;;4986595;28;20407;-64
2021/08/11 12:39:18;;;;;;;4.10;2.30;;;24.60;59.50;;;;;;4991646;28;20751;-65
2021/08/11 12:42:05;;;;;;;3.60;2.50;;;24.50;59.40;;;;;;4990235;28;20398;-64
2021/08/11 12:44:32;;;;;;;3.80;2.40;;;24.50;59.30;;;;;;4987679;28;20395;-64
2021/08/11 12:47:03;;;;;;;3.45;2.22;;;24.60;59.40;;;;;;4988418;28;20549;-65
2021/08/11 12:49:49;;;;;;;4.43;2.33;;;24.60;59.40;;;;;;4991243;28;20392;-65
2021/08/11 12:52:19;;;;;;;3.37;2.37;;;24.50;59.30;;;;;;4991533;28;20397;-64
2021/08/11 12:55:00;;;;;;;2.65;2.10;;;24.60;59.30;;;;;;4985809;28;20422;-65
2021/08/11 12:57:49;;;;;;;2.90;2.30;;;24.50;59.30;;;;;;4990891;28;20393;-65